sensor_id;sensor_type;location;lat;lon;timestamp;P1;durP1;ratioP1;P2;durP2;ratioP2
4808;SDS011;2418;49.930;8.606;2023-10-08T00:01:17;6.65;;;5.00;;
4808;SDS011;2418;49.930;8.606;2023-10-08T00:03:45;5.80;;;4.40;;
4808;SDS011;2418;49.930;8.606;2023-10-08T00:06:16;5.68;;;4.82;;
4808;SDS011;2418;49.930;8.606;2023-10-08T00:08:44;7.95;;;3.90;;
4808;SDS011;2418;49.930;8.606;2023-10-08T00:11:10;5.32;;;4.78;;
4808;SDS011;2418;49.930;8.606;2023-10-08T00:13:36;7.15;;;4.47;;
4808;SDS011;2418;49.930;8.606;2023-10-08T00:16:06;4.80;;;4.30;;
4808;SDS011;2418;49.930;8.606;2023-10-08T00:18:35;8.98;;;4.60;;
4808;SDS011;2418;49.930;8.606;2023-10-08T00:21:02;5.63;;;4.82;;
4808;SDS011;2418;49.930;8.606;2023-10-08T00:23:41;6.10;;;4.35;;
4808;SDS011;2418;49.930;8.606;2023-10-08T00:26:08;6.97;;;4.57;;
4808;SDS011;2418;49.930;8.606;2023-10-08T00:28:34;9.88;;;4.70;;
4808;SDS011;2418;49.930;8.606;2023-10-08T00:31:03;6.30;;;4.25;;
4808;SDS011;2418;49.930;8.606;2023-10-08T00:33:42;7.55;;;3.95;;
4808;SDS011;2418;49.930;8.606;2023-10-08T00:36:09;5.15;;;4.30;;
4808;SDS011;2418;49.930;8.606;2023-10-08T00:38:45;7.53;;;4.15;;
4808;SDS011;2418;49.930;8.606;2023-10-08T00:41:20;5.15;;;4.63;;
4808;SDS011;2418;49.930;8.606;2023-10-08T00:43:53;4.53;;;4.13;;
4808;SDS011;2418;49.930;8.606;2023-10-08T00:46:21;8.88;;;4.70;;
4808;SDS011;2418;49.930;8.606;2023-10-08T00:48:57;6.22;;;4.13;;
4808;SDS011;2418;49.930;8.606;2023-10-08T00:51:35;9.43;;;4.75;;
4808;SDS011;2418;49.930;8.606;2023-10-08T00:54:06;4.65;;;4.20;;
4808;SDS011;2418;49.930;8.606;2023-10-08T00:56:36;5.07;;;4.68;;
4808;SDS011;2418;49.930;8.606;2023-10-08T00:59:17;5.00;;;4.40;;
4808;SDS011;2418;49.930;8.606;2023-10-08T01:01:46;4.00;;;3.70;;
4808;SDS011;2418;49.930;8.606;2023-10-08T01:04:39;8.73;;;4.60;;
4808;SDS011;2418;49.930;8.606;2023-10-08T01:07:05;6.60;;;3.92;;
4808;SDS011;2418;49.930;8.606;2023-10-08T01:09:57;6.20;;;4.50;;
4808;SDS011;2418;49.930;8.606;2023-10-08T01:12:35;5.50;;;4.13;;
4808;SDS011;2418;49.930;8.606;2023-10-08T01:15:09;8.48;;;4.93;;
4808;SDS011;2418;49.930;8.606;2023-10-08T01:17:44;6.05;;;4.13;;
4808;SDS011;2418;49.930;8.606;2023-10-08T01:20:22;4.68;;;4.28;;
4808;SDS011;2418;49.930;8.606;2023-10-08T01:23:06;5.60;;;4.67;;
4808;SDS011;2418;49.930;8.606;2023-10-08T01:25:41;4.80;;;4.20;;
4808;SDS011;2418;49.930;8.606;2023-10-08T01:28:08;5.75;;;3.92;;
4808;SDS011;2418;49.930;8.606;2023-10-08T01:30:40;8.10;;;4.40;;
4808;SDS011;2418;49.930;8.606;2023-10-08T01:33:07;4.50;;;4.00;;
4808;SDS011;2418;49.930;8.606;2023-10-08T01:35:37;4.63;;;4.20;;
4808;SDS011;2418;49.930;8.606;2023-10-08T01:38:03;5.60;;;4.50;;
4808;SDS011;2418;49.930;8.606;2023-10-08T01:40:29;5.57;;;4.50;;
4808;SDS011;2418;49.930;8.606;2023-10-08T01:42:56;4.75;;;4.35;;
4808;SDS011;2418;49.930;8.606;2023-10-08T01:45:25;8.30;;;3.93;;
4808;SDS011;2418;49.930;8.606;2023-10-08T01:47:52;9.77;;;4.82;;
4808;SDS011;2418;49.930;8.606;2023-10-08T01:50:20;4.35;;;3.90;;
4808;SDS011;2418;49.930;8.606;2023-10-08T01:52:49;4.90;;;4.50;;
4808;SDS011;2418;49.930;8.606;2023-10-08T01:55:16;4.70;;;4.30;;
4808;SDS011;2418;49.930;8.606;2023-10-08T01:57:47;9.60;;;5.10;;
4808;SDS011;2418;49.930;8.606;2023-10-08T02:00:14;5.72;;;3.70;;
4808;SDS011;2418;49.930;8.606;2023-10-08T02:02:52;9.70;;;5.00;;
4808;SDS011;2418;49.930;8.606;2023-10-08T02:05:23;6.47;;;4.60;;
4808;SDS011;2418;49.930;8.606;2023-10-08T02:07:50;10.50;;;5.60;;
4808;SDS011;2418;49.930;8.606;2023-10-08T02:10:16;7.07;;;5.20;;
4808;SDS011;2418;49.930;8.606;2023-10-08T02:12:42;7.00;;;4.50;;
4808;SDS011;2418;49.930;8.606;2023-10-08T02:15:08;6.63;;;5.10;;
4808;SDS011;2418;49.930;8.606;2023-10-08T02:17:36;5.70;;;4.82;;
4808;SDS011;2418;49.930;8.606;2023-10-08T02:20:03;6.88;;;4.10;;
4808;SDS011;2418;49.930;8.606;2023-10-08T02:22:30;7.37;;;5.00;;
4808;SDS011;2418;49.930;8.606;2023-10-08T02:24:57;5.90;;;4.45;;
4808;SDS011;2418;49.930;8.606;2023-10-08T02:27:26;5.43;;;4.93;;
4808;SDS011;2418;49.930;8.606;2023-10-08T02:29:52;6.35;;;4.30;;
4808;SDS011;2418;49.930;8.606;2023-10-08T02:32:19;4.93;;;4.43;;
4808;SDS011;2418;49.930;8.606;2023-10-08T02:34:47;6.60;;;4.80;;
4808;SDS011;2418;49.930;8.606;2023-10-08T02:37:13;8.27;;;4.22;;
4808;SDS011;2418;49.930;8.606;2023-10-08T02:39:40;7.43;;;4.22;;
4808;SDS011;2418;49.930;8.606;2023-10-08T02:42:06;6.43;;;4.60;;
4808;SDS011;2418;49.930;8.606;2023-10-08T02:44:35;5.22;;;4.72;;
4808;SDS011;2418;49.930;8.606;2023-10-08T02:47:06;5.97;;;5.00;;
4808;SDS011;2418;49.930;8.606;2023-10-08T02:49:33;4.82;;;4.43;;
4808;SDS011;2418;49.930;8.606;2023-10-08T02:51:59;9.95;;;5.13;;
4808;SDS011;2418;49.930;8.606;2023-10-08T02:54:29;4.60;;;4.20;;
4808;SDS011;2418;49.930;8.606;2023-10-08T02:57:01;7.75;;;4.85;;
4808;SDS011;2418;49.930;8.606;2023-10-08T02:59:32;7.85;;;4.00;;
4808;SDS011;2418;49.930;8.606;2023-10-08T03:02:06;7.30;;;4.80;;
4808;SDS011;2418;49.930;8.606;2023-10-08T03:04:40;4.88;;;4.57;;
4808;SDS011;2418;49.930;8.606;2023-10-08T03:07:05;6.72;;;4.75;;
4808;SDS011;2418;49.930;8.606;2023-10-08T03:09:36;5.00;;;4.60;;
4808;SDS011;2418;49.930;8.606;2023-10-08T03:12:07;6.63;;;4.22;;
4808;SDS011;2418;49.930;8.606;2023-10-08T03:14:35;5.38;;;4.65;;
4808;SDS011;2418;49.930;8.606;2023-10-08T03:17:14;5.70;;;4.40;;
4808;SDS011;2418;49.930;8.606;2023-10-08T03:19:45;5.47;;;4.82;;
4808;SDS011;2418;49.930;8.606;2023-10-08T03:22:11;6.35;;;5.25;;
4808;SDS011;2418;49.930;8.606;2023-10-08T03:24:38;4.93;;;4.43;;
4808;SDS011;2418;49.930;8.606;2023-10-08T03:27:04;10.20;;;4.82;;
4808;SDS011;2418;49.930;8.606;2023-10-08T03:29:35;7.57;;;5.00;;
4808;SDS011;2418;49.930;8.606;2023-10-08T03:32:10;6.63;;;4.43;;
4808;SDS011;2418;49.930;8.606;2023-10-08T03:34:46;5.13;;;4.63;;
4808;SDS011;2418;49.930;8.606;2023-10-08T03:37:13;7.13;;;5.10;;
4808;SDS011;2418;49.930;8.606;2023-10-08T03:39:45;8.10;;;4.85;;
4808;SDS011;2418;49.930;8.606;2023-10-08T03:42:21;5.22;;;4.32;;
4808;SDS011;2418;49.930;8.606;2023-10-08T03:44:51;5.20;;;4.70;;
4808;SDS011;2418;49.930;8.606;2023-10-08T03:47:20;5.50;;;5.00;;
4808;SDS011;2418;49.930;8.606;2023-10-08T03:49:51;7.33;;;4.90;;
4808;SDS011;2418;49.930;8.606;2023-10-08T03:52:19;6.73;;;5.10;;
4808;SDS011;2418;49.930;8.606;2023-10-08T03:54:48;12.07;;;4.57;;
4808;SDS011;2418;49.930;8.606;2023-10-08T03:57:28;6.88;;;4.93;;
4808;SDS011;2418;49.930;8.606;2023-10-08T04:00:06;6.68;;;5.20;;
4808;SDS011;2418;49.930;8.606;2023-10-08T04:02:36;5.80;;;4.57;;
4808;SDS011;2418;49.930;8.606;2023-10-08T04:05:06;5.00;;;4.50;;
4808;SDS011;2418;49.930;8.606;2023-10-08T04:07:44;6.57;;;4.93;;
4808;SDS011;2418;49.930;8.606;2023-10-08T04:10:37;5.32;;;4.82;;
4808;SDS011;2418;49.930;8.606;2023-10-08T04:13:05;9.38;;;5.25;;
4808;SDS011;2418;49.930;8.606;2023-10-08T04:15:35;7.63;;;4.72;;
4808;SDS011;2418;49.930;8.606;2023-10-08T04:18:05;10.57;;;4.60;;
4808;SDS011;2418;49.930;8.606;2023-10-08T04:20:31;5.50;;;4.80;;
4808;SDS011;2418;49.930;8.606;2023-10-08T04:22:58;6.90;;;4.53;;
4808;SDS011;2418;49.930;8.606;2023-10-08T04:25:25;10.13;;;5.85;;
4808;SDS011;2418;49.930;8.606;2023-10-08T04:27:53;7.57;;;4.80;;
4808;SDS011;2418;49.930;8.606;2023-10-08T04:30:19;5.90;;;4.95;;
4808;SDS011;2418;49.930;8.606;2023-10-08T04:32:47;6.50;;;4.90;;
4808;SDS011;2418;49.930;8.606;2023-10-08T04:35:17;4.88;;;4.47;;
4808;SDS011;2418;49.930;8.606;2023-10-08T04:37:50;8.10;;;5.70;;
4808;SDS011;2418;49.930;8.606;2023-10-08T04:40:17;8.10;;;4.60;;
4808;SDS011;2418;49.930;8.606;2023-10-08T04:42:47;6.63;;;5.15;;
4808;SDS011;2418;49.930;8.606;2023-10-08T04:45:13;4.90;;;4.50;;
4808;SDS011;2418;49.930;8.606;2023-10-08T04:47:39;8.05;;;5.55;;
4808;SDS011;2418;49.930;8.606;2023-10-08T04:50:08;7.10;;;4.85;;
4808;SDS011;2418;49.930;8.606;2023-10-08T04:52:40;5.30;;;4.37;;
4808;SDS011;2418;49.930;8.606;2023-10-08T04:55:23;6.47;;;5.22;;
4808;SDS011;2418;49.930;8.606;2023-10-08T04:57:53;6.90;;;4.70;;
4808;SDS011;2418;49.930;8.606;2023-10-08T05:00:20;5.32;;;4.82;;
4808;SDS011;2418;49.930;8.606;2023-10-08T05:03:06;5.00;;;4.50;;
4808;SDS011;2418;49.930;8.606;2023-10-08T05:05:39;5.72;;;4.30;;
4808;SDS011;2418;49.930;8.606;2023-10-08T05:08:32;4.70;;;4.40;;
4808;SDS011;2418;49.930;8.606;2023-10-08T05:11:12;10.80;;;5.43;;
4808;SDS011;2418;49.930;8.606;2023-10-08T05:14:01;8.30;;;5.10;;
4808;SDS011;2418;49.930;8.606;2023-10-08T05:16:41;12.53;;;5.40;;
4808;SDS011;2418;49.930;8.606;2023-10-08T05:19:26;6.82;;;4.85;;
4808;SDS011;2418;49.930;8.606;2023-10-08T05:22:10;6.15;;;5.15;;
4808;SDS011;2418;49.930;8.606;2023-10-08T05:24:44;7.68;;;5.07;;
4808;SDS011;2418;49.930;8.606;2023-10-08T05:27:30;7.55;;;4.93;;
4808;SDS011;2418;49.930;8.606;2023-10-08T05:32:41;7.63;;;4.80;;
4808;SDS011;2418;49.930;8.606;2023-10-08T05:35:31;5.32;;;4.93;;
4808;SDS011;2418;49.930;8.606;2023-10-08T05:38:07;6.13;;;5.45;;
4808;SDS011;2418;49.930;8.606;2023-10-08T05:41:02;5.30;;;4.85;;
4808;SDS011;2418;49.930;8.606;2023-10-08T05:43:29;6.00;;;5.00;;
4808;SDS011;2418;49.930;8.606;2023-10-08T05:46:08;10.35;;;4.72;;
4808;SDS011;2418;49.930;8.606;2023-10-08T05:48:53;5.38;;;4.88;;
4808;SDS011;2418;49.930;8.606;2023-10-08T05:51:31;6.80;;;5.28;;
4808;SDS011;2418;49.930;8.606;2023-10-08T05:54:30;6.68;;;5.07;;
4808;SDS011;2418;49.930;8.606;2023-10-08T05:57:00;8.50;;;5.22;;
4808;SDS011;2418;49.930;8.606;2023-10-08T05:59:36;7.50;;;5.65;;
4808;SDS011;2418;49.930;8.606;2023-10-08T06:02:05;5.72;;;4.50;;
4808;SDS011;2418;49.930;8.606;2023-10-08T06:04:51;6.70;;;4.60;;
4808;SDS011;2418;49.930;8.606;2023-10-08T06:07:37;7.93;;;5.15;;
4808;SDS011;2418;49.930;8.606;2023-10-08T06:10:19;6.57;;;5.83;;
4808;SDS011;2418;49.930;8.606;2023-10-08T06:13:04;6.03;;;4.72;;
4808;SDS011;2418;49.930;8.606;2023-10-08T06:15:55;7.00;;;4.72;;
4808;SDS011;2418;49.930;8.606;2023-10-08T06:18:23;6.22;;;4.53;;
4808;SDS011;2418;49.930;8.606;2023-10-08T06:20:52;9.60;;;4.85;;
4808;SDS011;2418;49.930;8.606;2023-10-08T06:23:24;8.70;;;5.18;;
4808;SDS011;2418;49.930;8.606;2023-10-08T06:25:50;7.78;;;4.47;;
4808;SDS011;2418;49.930;8.606;2023-10-08T06:28:22;9.60;;;5.25;;
4808;SDS011;2418;49.930;8.606;2023-10-08T06:30:54;7.68;;;4.85;;
4808;SDS011;2418;49.930;8.606;2023-10-08T06:33:23;6.68;;;5.10;;
4808;SDS011;2418;49.930;8.606;2023-10-08T06:35:56;6.13;;;4.68;;
4808;SDS011;2418;49.930;8.606;2023-10-08T06:38:31;5.80;;;5.10;;
4808;SDS011;2418;49.930;8.606;2023-10-08T06:41:01;10.77;;;5.00;;
4808;SDS011;2418;49.930;8.606;2023-10-08T06:43:37;6.05;;;4.50;;
4808;SDS011;2418;49.930;8.606;2023-10-08T06:46:03;4.78;;;4.20;;
4808;SDS011;2418;49.930;8.606;2023-10-08T06:48:33;9.65;;;4.53;;
4808;SDS011;2418;49.930;8.606;2023-10-08T06:51:02;10.32;;;4.90;;
4808;SDS011;2418;49.930;8.606;2023-10-08T06:53:33;7.78;;;5.07;;
4808;SDS011;2418;49.930;8.606;2023-10-08T06:55:59;5.07;;;4.65;;
4808;SDS011;2418;49.930;8.606;2023-10-08T06:58:29;9.27;;;4.40;;
4808;SDS011;2418;49.930;8.606;2023-10-08T07:00:58;7.85;;;5.00;;
4808;SDS011;2418;49.930;8.606;2023-10-08T07:03:29;6.40;;;4.20;;
4808;SDS011;2418;49.930;8.606;2023-10-08T07:05:56;6.28;;;5.45;;
4808;SDS011;2418;49.930;8.606;2023-10-08T07:08:31;8.90;;;5.10;;
4808;SDS011;2418;49.930;8.606;2023-10-08T07:10:58;5.68;;;4.90;;
4808;SDS011;2418;49.930;8.606;2023-10-08T07:13:26;5.80;;;5.28;;
4808;SDS011;2418;49.930;8.606;2023-10-08T07:15:54;7.35;;;4.85;;
4808;SDS011;2418;49.930;8.606;2023-10-08T07:18:20;10.05;;;5.82;;
4808;SDS011;2418;49.930;8.606;2023-10-08T07:20:56;7.85;;;4.00;;
4808;SDS011;2418;49.930;8.606;2023-10-08T07:23:26;7.90;;;5.00;;
4808;SDS011;2418;49.930;8.606;2023-10-08T07:25:55;6.65;;;4.93;;
4808;SDS011;2418;49.930;8.606;2023-10-08T07:28:37;5.50;;;4.90;;
4808;SDS011;2418;49.930;8.606;2023-10-08T07:31:13;8.95;;;4.88;;
4808;SDS011;2418;49.930;8.606;2023-10-08T07:33:46;8.43;;;4.50;;
4808;SDS011;2418;49.930;8.606;2023-10-08T07:36:13;7.22;;;4.65;;
4808;SDS011;2418;49.930;8.606;2023-10-08T07:38:40;7.40;;;4.68;;
4808;SDS011;2418;49.930;8.606;2023-10-08T07:41:09;6.20;;;5.00;;
4808;SDS011;2418;49.930;8.606;2023-10-08T07:43:43;4.88;;;4.22;;
4808;SDS011;2418;49.930;8.606;2023-10-08T07:46:11;4.50;;;4.20;;
4808;SDS011;2418;49.930;8.606;2023-10-08T07:48:40;5.35;;;4.80;;
4808;SDS011;2418;49.930;8.606;2023-10-08T07:51:08;6.75;;;4.97;;
4808;SDS011;2418;49.930;8.606;2023-10-08T07:53:34;5.30;;;4.80;;
4808;SDS011;2418;49.930;8.606;2023-10-08T07:56:03;8.53;;;4.93;;
4808;SDS011;2418;49.930;8.606;2023-10-08T07:58:32;6.90;;;4.57;;
4808;SDS011;2418;49.930;8.606;2023-10-08T08:01:08;4.70;;;4.38;;
4808;SDS011;2418;49.930;8.606;2023-10-08T08:03:35;10.77;;;5.40;;
4808;SDS011;2418;49.930;8.606;2023-10-08T08:06:05;5.18;;;4.50;;
4808;SDS011;2418;49.930;8.606;2023-10-08T08:08:35;5.00;;;4.53;;
4808;SDS011;2418;49.930;8.606;2023-10-08T08:11:01;5.20;;;4.70;;
4808;SDS011;2418;49.930;8.606;2023-10-08T08:13:37;5.63;;;4.90;;
4808;SDS011;2418;49.930;8.606;2023-10-08T08:16:03;8.75;;;4.88;;
4808;SDS011;2418;49.930;8.606;2023-10-08T08:18:44;6.80;;;4.82;;
4808;SDS011;2418;49.930;8.606;2023-10-08T08:21:11;5.88;;;4.65;;
4808;SDS011;2418;49.930;8.606;2023-10-08T08:23:45;7.00;;;4.80;;
4808;SDS011;2418;49.930;8.606;2023-10-08T08:26:13;5.70;;;4.93;;
4808;SDS011;2418;49.930;8.606;2023-10-08T08:28:51;5.82;;;4.80;;
4808;SDS011;2418;49.930;8.606;2023-10-08T08:31:17;7.30;;;4.32;;
4808;SDS011;2418;49.930;8.606;2023-10-08T08:33:44;5.20;;;4.70;;
4808;SDS011;2418;49.930;8.606;2023-10-08T08:36:21;6.63;;;5.03;;
4808;SDS011;2418;49.930;8.606;2023-10-08T08:38:47;8.95;;;3.85;;
4808;SDS011;2418;49.930;8.606;2023-10-08T08:41:13;7.10;;;4.72;;
4808;SDS011;2418;49.930;8.606;2023-10-08T08:43:47;9.48;;;4.70;;
4808;SDS011;2418;49.930;8.606;2023-10-08T08:46:14;8.40;;;5.30;;
4808;SDS011;2418;49.930;8.606;2023-10-08T08:48:41;5.90;;;5.10;;
4808;SDS011;2418;49.930;8.606;2023-10-08T08:51:07;8.93;;;4.60;;
4808;SDS011;2418;49.930;8.606;2023-10-08T08:53:34;6.30;;;4.37;;
4808;SDS011;2418;49.930;8.606;2023-10-08T08:56:01;7.93;;;4.78;;
4808;SDS011;2418;49.930;8.606;2023-10-08T08:58:33;6.05;;;4.25;;
4808;SDS011;2418;49.930;8.606;2023-10-08T09:00:59;7.07;;;4.35;;
4808;SDS011;2418;49.930;8.606;2023-10-08T09:03:25;9.47;;;5.03;;
4808;SDS011;2418;49.930;8.606;2023-10-08T09:05:58;7.57;;;5.00;;
4808;SDS011;2418;49.930;8.606;2023-10-08T09:08:42;5.30;;;4.05;;
4808;SDS011;2418;49.930;8.606;2023-10-08T09:11:13;4.47;;;4.13;;
4808;SDS011;2418;49.930;8.606;2023-10-08T09:13:40;7.82;;;4.60;;
4808;SDS011;2418;49.930;8.606;2023-10-08T09:16:07;6.18;;;5.00;;
4808;SDS011;2418;49.930;8.606;2023-10-08T09:18:34;5.30;;;4.85;;
4808;SDS011;2418;49.930;8.606;2023-10-08T09:21:16;6.43;;;4.72;;
4808;SDS011;2418;49.930;8.606;2023-10-08T09:23:50;5.28;;;4.18;;
4808;SDS011;2418;49.930;8.606;2023-10-08T09:26:17;7.93;;;4.30;;
4808;SDS011;2418;49.930;8.606;2023-10-08T09:28:45;7.05;;;4.50;;
4808;SDS011;2418;49.930;8.606;2023-10-08T09:31:12;7.65;;;4.47;;
4808;SDS011;2418;49.930;8.606;2023-10-08T09:33:38;7.10;;;4.40;;
4808;SDS011;2418;49.930;8.606;2023-10-08T09:36:05;8.65;;;5.20;;
4808;SDS011;2418;49.930;8.606;2023-10-08T09:38:36;9.32;;;4.97;;
4808;SDS011;2418;49.930;8.606;2023-10-08T09:41:03;5.87;;;5.20;;
4808;SDS011;2418;49.930;8.606;2023-10-08T09:43:30;7.20;;;5.50;;
4808;SDS011;2418;49.930;8.606;2023-10-08T09:46:02;8.20;;;4.50;;
4808;SDS011;2418;49.930;8.606;2023-10-08T09:48:30;8.10;;;5.80;;
4808;SDS011;2418;49.930;8.606;2023-10-08T09:50:57;4.90;;;4.40;;
4808;SDS011;2418;49.930;8.606;2023-10-08T09:53:28;5.30;;;4.80;;
4808;SDS011;2418;49.930;8.606;2023-10-08T09:55:57;6.18;;;5.40;;
4808;SDS011;2418;49.930;8.606;2023-10-08T09:58:24;7.38;;;5.28;;
4808;SDS011;2418;49.930;8.606;2023-10-08T10:00:51;18.75;;;10.07;;
4808;SDS011;2418;49.930;8.606;2023-10-08T10:03:18;8.70;;;6.55;;
4808;SDS011;2418;49.930;8.606;2023-10-08T10:05:48;12.93;;;8.05;;
4808;SDS011;2418;49.930;8.606;2023-10-08T10:08:17;14.23;;;9.65;;
4808;SDS011;2418;49.930;8.606;2023-10-08T10:10:45;16.77;;;11.38;;
4808;SDS011;2418;49.930;8.606;2023-10-08T10:13:13;52.10;;;25.20;;
4808;SDS011;2418;49.930;8.606;2023-10-08T10:15:42;51.92;;;24.77;;
4808;SDS011;2418;49.930;8.606;2023-10-08T10:20:38;41.53;;;18.55;;
4808;SDS011;2418;49.930;8.606;2023-10-08T10:23:50;24.08;;;11.00;;
4808;SDS011;2418;49.930;8.606;2023-10-08T10:25:54;29.95;;;18.65;;
4808;SDS011;2418;49.930;8.606;2023-10-08T10:28:23;32.58;;;17.95;;
4808;SDS011;2418;49.930;8.606;2023-10-08T10:30:52;11.50;;;7.07;;
4808;SDS011;2418;49.930;8.606;2023-10-08T10:33:18;31.10;;;15.15;;
4808;SDS011;2418;49.930;8.606;2023-10-08T10:35:51;19.15;;;10.48;;
4808;SDS011;2418;49.930;8.606;2023-10-08T10:38:20;35.67;;;16.08;;
4808;SDS011;2418;49.930;8.606;2023-10-08T10:40:51;12.32;;;6.82;;
4808;SDS011;2418;49.930;8.606;2023-10-08T10:43:23;22.73;;;11.05;;
4808;SDS011;2418;49.930;8.606;2023-10-08T10:45:57;6.93;;;4.90;;
4808;SDS011;2418;49.930;8.606;2023-10-08T10:48:23;12.70;;;7.70;;
4808;SDS011;2418;49.930;8.606;2023-10-08T10:50:51;5.88;;;5.30;;
4808;SDS011;2418;49.930;8.606;2023-10-08T10:53:39;9.63;;;4.80;;
4808;SDS011;2418;49.930;8.606;2023-10-08T10:56:24;6.15;;;4.60;;
4808;SDS011;2418;49.930;8.606;2023-10-08T10:59:01;6.53;;;5.63;;
4808;SDS011;2418;49.930;8.606;2023-10-08T11:01:50;5.22;;;4.72;;
4808;SDS011;2418;49.930;8.606;2023-10-08T11:04:32;4.75;;;4.30;;
4808;SDS011;2418;49.930;8.606;2023-10-08T11:07:10;4.70;;;4.30;;
4808;SDS011;2418;49.930;8.606;2023-10-08T11:09:37;6.72;;;4.75;;
4808;SDS011;2418;49.930;8.606;2023-10-08T11:12:04;5.40;;;4.97;;
4808;SDS011;2418;49.930;8.606;2023-10-08T11:14:40;10.70;;;4.30;;
4808;SDS011;2418;49.930;8.606;2023-10-08T11:17:24;4.88;;;4.20;;
4808;SDS011;2418;49.930;8.606;2023-10-08T11:19:50;6.40;;;3.88;;
4808;SDS011;2418;49.930;8.606;2023-10-08T11:22:18;4.20;;;3.80;;
4808;SDS011;2418;49.930;8.606;2023-10-08T11:24:47;5.93;;;4.10;;
4808;SDS011;2418;49.930;8.606;2023-10-08T11:27:14;7.68;;;3.83;;
4808;SDS011;2418;49.930;8.606;2023-10-08T11:29:53;4.75;;;4.25;;
4808;SDS011;2418;49.930;8.606;2023-10-08T11:32:23;5.40;;;3.92;;
4808;SDS011;2418;49.930;8.606;2023-10-08T11:34:54;4.50;;;4.10;;
4808;SDS011;2418;49.930;8.606;2023-10-08T11:37:27;5.30;;;4.30;;
4808;SDS011;2418;49.930;8.606;2023-10-08T11:39:53;10.25;;;4.30;;
4808;SDS011;2418;49.930;8.606;2023-10-08T11:42:23;8.60;;;4.03;;
4808;SDS011;2418;49.930;8.606;2023-10-08T11:45:01;3.90;;;3.60;;
4808;SDS011;2418;49.930;8.606;2023-10-08T11:47:47;6.45;;;4.20;;
4808;SDS011;2418;49.930;8.606;2023-10-08T11:50:14;6.03;;;4.05;;
4808;SDS011;2418;49.930;8.606;2023-10-08T11:52:46;10.30;;;4.00;;
4808;SDS011;2418;49.930;8.606;2023-10-08T11:55:12;4.23;;;3.77;;
4808;SDS011;2418;49.930;8.606;2023-10-08T11:57:47;7.20;;;4.13;;
4808;SDS011;2418;49.930;8.606;2023-10-08T12:00:16;6.97;;;4.18;;
4808;SDS011;2418;49.930;8.606;2023-10-08T12:02:46;6.78;;;4.07;;
4808;SDS011;2418;49.930;8.606;2023-10-08T12:05:12;5.53;;;4.10;;
4808;SDS011;2418;49.930;8.606;2023-10-08T12:07:46;9.10;;;4.03;;
4808;SDS011;2418;49.930;8.606;2023-10-08T12:10:19;12.50;;;5.32;;
4808;SDS011;2418;49.930;8.606;2023-10-08T12:12:49;9.77;;;4.40;;
4808;SDS011;2418;49.930;8.606;2023-10-08T12:15:17;7.85;;;4.95;;
4808;SDS011;2418;49.930;8.606;2023-10-08T12:17:50;8.63;;;4.50;;
4808;SDS011;2418;49.930;8.606;2023-10-08T12:20:38;5.22;;;4.40;;
4808;SDS011;2418;49.930;8.606;2023-10-08T12:23:08;6.72;;;4.22;;
4808;SDS011;2418;49.930;8.606;2023-10-08T12:25:36;6.72;;;4.30;;
4808;SDS011;2418;49.930;8.606;2023-10-08T12:28:02;7.60;;;5.70;;
4808;SDS011;2418;49.930;8.606;2023-10-08T12:30:32;9.68;;;4.50;;
4808;SDS011;2418;49.930;8.606;2023-10-08T12:33:06;12.55;;;5.35;;
4808;SDS011;2418;49.930;8.606;2023-10-08T12:35:32;9.13;;;4.97;;
4808;SDS011;2418;49.930;8.606;2023-10-08T12:38:02;19.40;;;9.43;;
4808;SDS011;2418;49.930;8.606;2023-10-08T12:40:30;14.93;;;6.83;;
4808;SDS011;2418;49.930;8.606;2023-10-08T12:43:07;6.83;;;4.87;;
4808;SDS011;2418;49.930;8.606;2023-10-08T12:45:33;8.35;;;5.10;;
4808;SDS011;2418;49.930;8.606;2023-10-08T12:48:02;6.38;;;4.00;;
4808;SDS011;2418;49.930;8.606;2023-10-08T12:50:30;6.78;;;4.30;;
4808;SDS011;2418;49.930;8.606;2023-10-08T12:53:07;8.32;;;4.50;;
4808;SDS011;2418;49.930;8.606;2023-10-08T12:55:33;6.07;;;4.20;;
4808;SDS011;2418;49.930;8.606;2023-10-08T12:58:04;8.05;;;4.20;;
4808;SDS011;2418;49.930;8.606;2023-10-08T13:00:36;9.32;;;3.97;;
4808;SDS011;2418;49.930;8.606;2023-10-08T13:03:14;8.18;;;4.85;;
4808;SDS011;2418;49.930;8.606;2023-10-08T13:05:43;5.72;;;3.85;;
4808;SDS011;2418;49.930;8.606;2023-10-08T13:08:10;8.25;;;4.30;;
4808;SDS011;2418;49.930;8.606;2023-10-08T13:10:39;7.93;;;4.63;;
4808;SDS011;2418;49.930;8.606;2023-10-08T13:13:08;12.50;;;4.93;;
4808;SDS011;2418;49.930;8.606;2023-10-08T13:15:35;11.63;;;5.63;;
4808;SDS011;2418;49.930;8.606;2023-10-08T13:18:01;7.88;;;4.53;;
4808;SDS011;2418;49.930;8.606;2023-10-08T13:20:30;8.20;;;4.20;;
4808;SDS011;2418;49.930;8.606;2023-10-08T13:23:01;5.38;;;3.90;;
4808;SDS011;2418;49.930;8.606;2023-10-08T13:25:27;7.70;;;4.10;;
4808;SDS011;2418;49.930;8.606;2023-10-08T13:27:56;8.00;;;3.72;;
4808;SDS011;2418;49.930;8.606;2023-10-08T13:30:22;8.55;;;4.25;;
4808;SDS011;2418;49.930;8.606;2023-10-08T13:32:48;6.57;;;4.07;;
4808;SDS011;2418;49.930;8.606;2023-10-08T13:35:14;13.45;;;5.50;;
4808;SDS011;2418;49.930;8.606;2023-10-08T13:37:40;7.15;;;4.68;;
4808;SDS011;2418;49.930;8.606;2023-10-08T13:40:05;9.57;;;5.10;;
4808;SDS011;2418;49.930;8.606;2023-10-08T13:42:31;12.00;;;4.28;;
4808;SDS011;2418;49.930;8.606;2023-10-08T13:44:57;7.13;;;4.97;;
4808;SDS011;2418;49.930;8.606;2023-10-08T13:47:24;5.60;;;4.40;;
4808;SDS011;2418;49.930;8.606;2023-10-08T13:49:53;10.23;;;4.53;;
4808;SDS011;2418;49.930;8.606;2023-10-08T13:52:20;6.15;;;4.55;;
4808;SDS011;2418;49.930;8.606;2023-10-08T13:54:51;5.97;;;4.00;;
4808;SDS011;2418;49.930;8.606;2023-10-08T13:57:20;4.85;;;4.32;;
4808;SDS011;2418;49.930;8.606;2023-10-08T13:59:47;4.45;;;3.58;;
4808;SDS011;2418;49.930;8.606;2023-10-08T14:02:14;11.73;;;5.25;;
4808;SDS011;2418;49.930;8.606;2023-10-08T14:04:42;4.90;;;3.97;;
4808;SDS011;2418;49.930;8.606;2023-10-08T14:07:12;10.33;;;4.30;;
4808;SDS011;2418;49.930;8.606;2023-10-08T14:09:42;6.80;;;4.03;;
4808;SDS011;2418;49.930;8.606;2023-10-08T14:12:10;8.98;;;4.65;;
4808;SDS011;2418;49.930;8.606;2023-10-08T14:14:36;11.50;;;5.13;;
4808;SDS011;2418;49.930;8.606;2023-10-08T14:17:09;6.18;;;4.90;;
4808;SDS011;2418;49.930;8.606;2023-10-08T14:19:39;8.70;;;4.30;;
4808;SDS011;2418;49.930;8.606;2023-10-08T14:22:12;8.05;;;3.90;;
4808;SDS011;2418;49.930;8.606;2023-10-08T14:24:44;8.55;;;4.30;;
4808;SDS011;2418;49.930;8.606;2023-10-08T14:27:24;11.95;;;4.18;;
4808;SDS011;2418;49.930;8.606;2023-10-08T14:29:56;11.02;;;4.38;;
4808;SDS011;2418;49.930;8.606;2023-10-08T14:32:25;5.30;;;3.70;;
4808;SDS011;2418;49.930;8.606;2023-10-08T14:34:53;9.50;;;4.10;;
4808;SDS011;2418;49.930;8.606;2023-10-08T14:37:19;5.88;;;4.10;;
4808;SDS011;2418;49.930;8.606;2023-10-08T14:40:24;6.38;;;4.15;;
4808;SDS011;2418;49.930;8.606;2023-10-08T14:43:08;11.48;;;4.80;;
4808;SDS011;2418;49.930;8.606;2023-10-08T14:45:36;8.45;;;4.68;;
4808;SDS011;2418;49.930;8.606;2023-10-08T14:48:05;8.48;;;4.70;;
4808;SDS011;2418;49.930;8.606;2023-10-08T14:50:36;11.82;;;4.30;;
4808;SDS011;2418;49.930;8.606;2023-10-08T14:53:03;9.10;;;4.40;;
4808;SDS011;2418;49.930;8.606;2023-10-08T14:55:30;8.05;;;4.70;;
4808;SDS011;2418;49.930;8.606;2023-10-08T14:57:59;5.65;;;4.10;;
4808;SDS011;2418;49.930;8.606;2023-10-08T15:00:32;15.52;;;4.88;;
4808;SDS011;2418;49.930;8.606;2023-10-08T15:03:00;9.38;;;4.88;;
4808;SDS011;2418;49.930;8.606;2023-10-08T15:05:28;5.85;;;4.07;;
4808;SDS011;2418;49.930;8.606;2023-10-08T15:07:55;10.75;;;4.88;;
4808;SDS011;2418;49.930;8.606;2023-10-08T15:10:22;8.00;;;4.10;;
4808;SDS011;2418;49.930;8.606;2023-10-08T15:12:48;10.27;;;4.60;;
4808;SDS011;2418;49.930;8.606;2023-10-08T15:15:16;7.22;;;4.50;;
4808;SDS011;2418;49.930;8.606;2023-10-08T15:17:42;8.43;;;4.47;;
4808;SDS011;2418;49.930;8.606;2023-10-08T15:20:09;15.65;;;4.80;;
4808;SDS011;2418;49.930;8.606;2023-10-08T15:22:42;4.93;;;4.53;;
4808;SDS011;2418;49.930;8.606;2023-10-08T15:25:11;10.77;;;4.50;;
4808;SDS011;2418;49.930;8.606;2023-10-08T15:27:37;9.07;;;4.60;;
4808;SDS011;2418;49.930;8.606;2023-10-08T15:30:06;9.70;;;4.70;;
4808;SDS011;2418;49.930;8.606;2023-10-08T15:32:36;10.07;;;4.85;;
4808;SDS011;2418;49.930;8.606;2023-10-08T15:35:02;14.80;;;4.70;;
4808;SDS011;2418;49.930;8.606;2023-10-08T15:37:28;15.30;;;5.07;;
4808;SDS011;2418;49.930;8.606;2023-10-08T15:39:54;8.75;;;4.85;;
4808;SDS011;2418;49.930;8.606;2023-10-08T15:42:20;9.25;;;3.90;;